Time;durP1;ratioP1;P1;durP2;ratioP2;P2;SDS_P1;SDS_P2;PMS_P1;PMS_P2;Temp;Humidity;BMP_temperature;BMP_pressure;BME280_temperature;BME280_humidity;BME280_pressure;Samples;Min_cycle;Max_cycle;Signal;HPM_P1;HPM_P2
2022/08/22 00:00:19;;;;;;;8.93;8.13;;;16.30;93.00;;;15.94;80.71;97855.09;5008084;28;20532;-71
2022/08/22 00:03:12;;;;;;;9.20;8.40;;;16.20;93.20;;;15.81;81.00;97855.44;5008370;28;20875;-70
2022/08/22 00:05:52;;;;;;;9.43;8.67;;;16.10;93.80;;;15.85;81.22;97851.97;5007011;28;20465;-70
2022/08/22 00:08:26;;;;;;;9.63;8.80;;;16.10;94.30;;;15.91;80.87;97852.06;5024570;28;20461;-71
2022/08/22 00:11:01;;;;;;;8.87;8.17;;;16.20;93.90;;;15.91;81.28;97852.06;5023104;28;20458;-70
2022/08/22 00:13:38;;;;;;;10.10;9.20;;;16.20;94.10;;;15.92;81.28;97856.41;5024317;28;20457;-72
2022/08/22 00:16:16;;;;;;;8.90;8.20;;;16.20;93.80;;;15.94;81.35;97851.53;5005870;28;21000;-69
2022/08/22 00:18:51;;;;;;;9.47;8.67;;;16.20;94.00;;;15.86;81.61;97853.59;5009441;28;20440;-70
2022/08/22 00:21:26;;;;;;;9.90;9.10;;;16.20;93.80;;;15.83;81.71;97856.00;5007889;28;20474;-68
2022/08/22 00:24:09;;;;;;;10.07;9.10;;;16.10;94.60;;;15.72;82.25;97853.16;5024806;28;20486;-70
2022/08/22 00:26:43;;;;;;;8.40;7.80;;;16.00;94.30;;;15.67;82.80;97852.25;5024624;28;20498;-69
2022/08/22 00:29:15;;;;;;;9.57;8.77;;;15.90;95.20;;;15.50;83.21;97839.53;5028865;28;20449;-69
2022/08/22 00:31:51;;;;;;;10.03;9.13;;;15.80;95.70;;;15.62;82.80;97846.75;5041587;28;20456;-70
2022/08/22 00:34:32;;;;;;;9.97;9.00;;;15.90;95.90;;;15.59;83.65;97853.53;5028434;28;20484;-70
2022/08/22 00:37:07;;;;;;;8.93;8.23;;;15.90;95.80;;;15.61;83.17;97851.38;5027568;28;20479;-70
2022/08/22 00:39:40;;;;;;;9.67;8.63;;;15.90;95.50;;;15.38;84.06;97852.41;5028968;28;20452;-70
2022/08/22 00:42:48;;;;;;;10.60;9.80;;;15.80;96.00;;;15.40;84.41;97858.47;5042268;28;20443;-71
2022/08/22 00:45:48;;;;;;;10.00;9.20;;;15.70;97.20;;;15.48;84.54;97862.66;5009365;28;20541;-69
2022/08/22 00:49:08;;;;;;;10.37;9.47;;;15.70;96.70;;;15.60;83.47;97857.09;5043927;28;20441;-69
2022/08/22 00:52:07;;;;;;;9.60;8.80;;;15.90;95.80;;;15.18;83.38;97793.91;5022801;28;20827;-69
2022/08/22 00:55:04;;;;;;;9.70;9.00;;;15.90;95.70;;;15.58;83.74;97858.16;5023552;28;20457;-71
2022/08/22 00:57:56;;;;;;;11.00;9.90;;;15.90;95.60;;;15.65;83.62;97857.13;5026912;28;20468;-69
2022/08/22 01:00:26;;;;;;;11.30;10.30;;;16.00;95.50;;;15.61;83.79;97851.38;5038378;28;21073;-69
2022/08/22 01:03:34;;;;;;;9.37;8.67;;;16.00;95.70;;;15.58;83.53;97852.72;5008566;28;20509;-68
2022/08/22 01:06:22;;;;;;;10.40;9.60;;;16.00;95.50;;;15.70;83.42;97849.06;5021666;28;20521;-69
2022/08/22 01:09:04;;;;;;;10.10;9.30;;;16.00;95.40;;;15.68;83.52;97848.47;5007383;28;20455;-69
2022/08/22 01:12:04;;;;;;;10.60;9.63;;;16.10;95.40;;;15.51;84.28;97857.50;5007561;28;20463;-69
2022/08/22 01:14:48;;;;;;;20.20;10.33;;;15.90;95.70;;;15.43;84.37;97845.16;5008165;28;20459;-69
2022/08/22 01:17:56;;;;;;;10.40;9.50;;;15.90;96.30;;;15.47;84.62;97852.81;5010770;28;20946;-69
2022/08/22 01:21:32;;;;;;;11.90;10.80;;;15.90;96.40;;;15.34;85.41;97851.28;5025539;28;20546;-69
2022/08/22 01:25:19;;;;;;;10.70;9.80;;;15.80;96.80;;;15.37;85.32;97842.59;5031209;28;20474;-68
2022/08/22 01:28:33;;;;;;;11.97;10.70;;;15.70;97.10;;;15.40;85.06;97833.97;4945016;28;20492;-69
2022/08/22 01:31:50;;;;;;;12.10;10.90;;;15.70;97.20;;;15.35;85.18;97844.75;5022542;28;20499;-70
2022/08/22 01:35:09;;;;;;;10.93;10.03;;;15.70;97.30;;;15.24;86.15;97839.19;5007878;28;20518;-69
2022/08/22 01:38:22;;;;;;;10.50;9.40;;;15.60;97.90;;;15.23;86.24;97842.97;5003700;28;20570;-70
2022/08/22 01:41:24;;;;;;;11.60;10.60;;;15.60;98.10;;;15.21;86.06;97842.38;5003134;28;20457;-70
2022/08/22 01:44:20;;;;;;;11.10;10.10;;;15.60;97.50;;;15.17;86.33;97846.69;5007765;28;20473;-69
2022/08/22 01:46:57;;;;;;;11.67;10.57;;;15.50;98.20;;;15.05;86.82;97832.34;5014411;28;20450;-69
2022/08/22 01:49:37;;;;;;;11.10;10.20;;;15.50;98.30;;;15.23;86.46;97845.69;5037962;28;20537;-71
2022/08/22 01:52:11;;;;;;;11.47;10.30;;;15.60;98.70;;;15.12;86.18;97854.78;5027468;28;20455;-69
2022/08/22 01:54:49;;;;;;;10.80;9.90;;;15.50;98.20;;;15.14;86.94;97849.91;5026813;28;20465;-69
2022/08/22 01:57:18;;;;;;;11.83;10.73;;;15.50;98.70;;;15.05;86.97;97848.69;5008460;28;20824;-70
2022/08/22 01:59:49;;;;;;;10.50;9.60;;;15.40;99.40;;;14.96;87.15;97846.41;5009153;28;20468;-70
2022/08/22 02:02:45;;;;;;;11.40;10.50;;;15.40;99.60;;;14.95;87.11;97850.19;5027385;28;20515;-69
2022/08/22 02:05:25;;;;;;;12.83;11.00;;;15.30;99.60;;;14.97;87.13;97855.38;5006567;28;20509;-70
2022/08/22 02:08:00;;;;;;;10.47;9.63;;;15.30;99.90;;;14.87;87.38;97853.31;5009480;28;20506;-68
2022/08/22 02:10:57;;;;;;;11.23;10.30;;;15.30;99.90;;;14.73;88.42;97845.47;5010861;28;20520;-68
2022/08/22 02:13:44;;;;;;;10.77;9.70;;;15.20;99.90;;;14.64;89.14;97838.78;5046554;28;20638;-68
2022/08/22 02:16:19;;;;;;;10.70;9.80;;;15.10;99.90;;;14.68;88.55;97850.81;5044653;28;20723;-69
2022/08/22 02:19:05;;;;;;;11.27;10.03;;;15.10;99.90;;;14.59;88.95;97849.56;5047355;28;20453;-69
2022/08/22 02:21:49;;;;;;;11.60;10.40;;;15.00;99.90;;;14.42;90.20;97857.72;5028311;28;20454;-68
2022/08/22 02:24:26;;;;;;;10.60;9.80;;;14.80;99.90;;;14.45;90.73;97858.00;5037678;28;20466;-69
2022/08/22 02:27:07;;;;;;;12.00;10.90;;;14.80;99.90;;;14.52;89.93;97857.06;5040229;28;20486;-69
2022/08/22 02:29:42;;;;;;;12.83;11.50;;;14.80;99.90;;;14.49;90.15;97844.78;5030959;28;20485;-69
2022/08/22 02:32:21;;;;;;;11.93;10.83;;;14.80;99.90;;;14.52;89.84;97851.63;5029114;28;20461;-70
2022/08/22 02:35:00;;;;;;;13.00;11.60;;;14.80;99.90;;;14.49;90.31;97860.28;5028588;28;20933;-71
2022/08/22 02:37:40;;;;;;;11.10;10.20;;;14.80;99.90;;;14.31;90.67;97859.38;5045926;28;20482;-69
2022/08/22 02:40:25;;;;;;;11.53;10.50;;;14.70;99.90;;;14.19;91.33;97861.34;5030832;28;20869;-70
2022/08/22 02:43:00;;;;;;;12.83;11.57;;;14.50;99.90;;;14.20;91.59;97850.22;5026186;28;20943;-70
2022/08/22 02:45:37;;;;;;;12.77;10.60;;;14.60;99.90;;;13.99;92.17;97832.72;5022476;28;20479;-70
2022/08/22 02:48:14;;;;;;;12.37;11.07;;;14.50;99.90;;;14.14;92.01;97851.22;5039110;28;20454;-70
2022/08/22 02:50:49;;;;;;;12.97;11.87;;;14.50;99.90;;;14.10;92.33;97866.31;5021184;28;20455;-70
2022/08/22 02:53:29;;;;;;;11.50;10.50;;;14.40;99.90;;;14.03;92.69;97861.88;5011038;28;20540;-70
2022/08/22 02:56:04;;;;;;;12.40;11.40;;;14.30;99.90;;;13.94;92.99;97865.22;5018902;28;20569;-70
2022/08/22 02:58:41;;;;;;;13.13;11.90;;;14.30;99.90;;;13.98;93.11;97864.50;5044530;28;20869;-69
2022/08/22 03:01:34;;;;;;;13.83;12.13;;;14.20;99.90;;;14.05;93.49;97858.94;5027761;28;20447;-69
2022/08/22 03:04:28;;;;;;;12.73;11.53;;;14.30;99.90;;;14.08;92.70;97869.31;5009358;28;20459;-69
2022/08/22 03:07:10;;;;;;;13.00;11.80;;;14.40;99.90;;;14.01;93.16;97860.47;5009459;28;20456;-69
2022/08/22 03:09:45;;;;;;;12.27;11.17;;;14.30;99.90;;;13.96;93.25;97854.94;5010839;28;20509;-70
2022/08/22 03:12:21;;;;;;;13.17;12.03;;;14.30;99.90;;;13.93;93.29;97858.13;5010182;28;20455;-70
2022/08/22 03:15:02;;;;;;;13.53;12.27;;;14.30;99.90;;;13.96;93.96;97860.38;5011361;28;20552;-72
2022/08/22 03:17:35;;;;;;;12.50;11.50;;;14.30;99.90;;;13.98;94.13;97875.38;5034575;28;20528;-70
2022/08/22 03:20:11;;;;;;;13.23;12.00;;;14.20;99.90;;;13.98;93.58;97869.09;5036482;28;20550;-69
2022/08/22 03:22:53;;;;;;;13.60;12.50;;;14.30;99.90;;;13.88;93.55;97873.28;5043243;28;20534;-71
2022/08/22 03:25:31;;;;;;;13.40;12.30;;;14.20;99.90;;;13.83;94.29;97866.91;5022625;28;20458;-69
2022/08/22 03:28:03;;;;;;;13.47;12.20;;;14.10;99.90;;;13.72;94.59;97858.53;5030225;28;20461;-70
2022/08/22 03:30:40;;;;;;;12.60;11.60;;;14.10;99.90;;;13.88;94.75;97865.13;5028385;28;20479;-68
2022/08/22 03:33:19;;;;;;;13.80;12.50;;;14.20;99.90;;;13.95;94.01;97869.59;5029961;28;20453;-69
2022/08/22 03:36:05;;;;;;;14.13;12.93;;;14.30;99.90;;;14.00;93.83;97875.09;5043771;28;20537;-70
2022/08/22 03:38:51;;;;;;;12.90;11.80;;;14.40;99.90;;;14.04;93.26;97873.56;5028612;28;20454;-69
2022/08/22 03:42:09;;;;;;;13.90;12.60;;;14.40;99.90;;;14.07;93.27;97867.66;5044385;28;20446;-71
2022/08/22 03:45:32;;;;;;;14.00;12.70;;;14.40;99.90;;;14.01;93.90;97871.31;5024826;28;20567;-70
2022/08/22 03:48:46;;;;;;;13.47;12.20;;;14.40;99.90;;;13.85;93.72;97876.44;5051778;28;20445;-69
2022/08/22 03:51:40;;;;;;;13.57;12.47;;;14.20;99.90;;;13.91;93.81;97882.81;5008765;28;20462;-71
2022/08/22 03:54:55;;;;;;;13.07;11.87;;;14.30;99.90;;;13.80;94.59;97884.50;5009327;28;20961;-69
2022/08/22 03:58:11;;;;;;;14.50;13.20;;;14.20;99.90;;;13.76;94.56;97893.34;5027685;28;20484;-69
2022/08/22 04:01:35;;;;;;;13.93;12.53;;;14.20;99.90;;;13.74;95.17;97888.19;5044329;28;20949;-69
2022/08/22 04:04:51;;;;;;;14.17;12.77;;;14.10;99.90;;;13.81;94.69;97893.47;5028982;28;20477;-69
2022/08/22 04:07:54;;;;;;;15.33;14.00;;;14.10;99.90;;;13.81;94.78;97893.47;5029514;28;20930;-69
2022/08/22 04:10:56;;;;;;;14.30;12.90;;;14.20;99.90;;;13.80;94.58;97897.22;5009137;28;20485;-69
2022/08/22 04:14:23;;;;;;;16.13;12.77;;;14.20;99.90;;;13.90;94.19;97888.50;5029668;28;20457;-70
2022/08/22 04:17:33;;;;;;;13.10;12.00;;;14.30;99.90;;;13.92;93.90;97897.22;5032694;28;20992;-71
2022/08/22 04:20:25;;;;;;;14.43;13.23;;;14.40;99.90;;;13.91;93.93;97898.28;5034761;28;20454;-71
2022/08/22 04:23:28;;;;;;;13.40;12.20;;;14.40;99.90;;;13.97;93.73;97900.03;5028742;28;20465;-71
2022/08/22 04:26:01;;;;;;;14.83;13.30;;;14.40;99.90;;;13.95;93.37;97902.16;5027310;28;20464;-71
2022/08/22 04:28:40;;;;;;;14.87;13.47;;;14.40;99.90;;;13.83;94.40;97903.03;5029379;28;20787;-71
2022/08/22 04:31:11;;;;;;;14.20;13.00;;;14.40;99.90;;;13.95;93.56;97903.00;5027172;28;20509;-72
2022/08/22 04:33:46;;;;;;;14.50;13.00;;;14.40;99.90;;;13.96;93.65;97898.38;5044216;28;20573;-70
2022/08/22 04:36:21;;;;;;;13.70;12.33;;;14.30;99.90;;;14.01;93.24;97890.34;5026873;28;20476;-71
2022/08/22 04:38:53;;;;;;;13.27;12.20;;;14.40;99.90;;;14.04;92.96;97895.31;5027894;28;20450;-69
2022/08/22 04:41:34;;;;;;;14.67;13.27;;;14.40;99.90;;;14.07;92.74;97888.53;5027702;28;20458;-70
2022/08/22 04:44:11;;;;;;;13.77;12.43;;;14.40;99.90;;;14.03;92.79;97891.75;5028143;28;20449;-70
2022/08/22 04:46:45;;;;;;;20.73;13.47;;;14.50;99.90;;;14.02;93.01;97881.97;5030669;28;20461;-70
2022/08/22 04:49:20;;;;;;;13.10;11.90;;;14.50;99.90;;;14.28;92.09;97896.03;5041596;28;20461;-70
2022/08/22 04:51:52;;;;;;;13.97;12.60;;;14.60;99.90;;;14.66;90.22;97895.63;5010529;28;20510;-70
2022/08/22 04:54:43;;;;;;;12.63;11.23;;;15.00;99.90;;;15.18;87.05;97894.59;5008377;28;20907;-71
2022/08/22 04:57:23;;;;;;;12.77;11.70;;;15.60;97.50;;;15.35;85.15;97896.47;5013508;28;20475;-70
2022/08/22 04:59:59;;;;;;;12.50;11.00;;;15.90;94.90;;;15.62;83.57;97901.22;5009929;28;20561;-71
2022/08/22 05:02:28;;;;;;;11.07;9.97;;;16.10;93.90;;;15.36;83.03;97868.19;5009009;28;20454;-69
2022/08/22 05:05:04;;;;;;;10.90;10.00;;;16.20;93.10;;;15.53;82.87;97884.50;5005547;28;20951;-70
2022/08/22 05:07:36;;;;;;;11.70;10.60;;;16.30;92.70;;;16.12;80.22;97913.88;5014637;28;20470;-69
2022/08/22 05:10:08;;;;;;;11.63;10.50;;;16.80;91.00;;;16.28;79.03;97914.03;5027429;28;20455;-69
2022/08/22 05:12:40;;;;;;;11.53;10.63;;;17.10;90.10;;;16.35;78.35;97909.22;5036205;28;20480;-69
2022/08/22 05:15:17;;;;;;;11.30;10.20;;;17.30;89.10;;;16.16;77.74;97856.16;5043190;28;20462;-70
2022/08/22 05:17:47;;;;;;;11.50;10.40;;;17.40;89.10;;;16.51;77.83;97923.03;5043010;28;20474;-71
2022/08/22 05:20:21;;;;;;;10.57;9.63;;;17.40;88.80;;;16.63;76.76;97920.16;5027446;28;20541;-69
2022/08/22 05:22:59;;;;;;;11.07;10.10;;;17.60;88.00;;;16.97;75.24;97915.28;5028405;28;20444;-74
2022/08/22 05:25:34;;;;;;;10.30;9.10;;;17.80;87.10;;;17.19;73.82;97925.31;5026620;28;20818;-71
2022/08/22 05:28:10;;;;;;;10.20;9.17;;;17.90;86.80;;;17.40;73.41;97920.00;5026765;28;21007;-71
2022/08/22 05:30:40;;;;;;;10.17;9.23;;;18.20;86.40;;;17.52;72.82;97928.00;5027313;28;20493;-70
2022/08/22 05:33:19;;;;;;;9.50;8.60;;;18.50;85.30;;;18.04;70.01;97929.16;5042971;28;20518;-69
2022/08/22 05:35:52;;;;;;;10.40;8.77;;;19.00;84.30;;;18.81;67.48;97922.25;5026375;28;20539;-69
2022/08/22 05:38:28;;;;;;;10.77;8.20;;;19.60;82.90;;;19.08;65.99;97937.63;5042679;28;20549;-70
2022/08/22 05:41:01;;;;;;;10.03;8.80;;;19.90;81.90;;;19.08;65.51;97932.16;5042186;28;20683;-70
2022/08/22 05:43:29;;;;;;;8.73;7.97;;;20.00;81.30;;;19.35;65.21;97929.13;5030591;28;20506;-70
2022/08/22 05:45:59;;;;;;;8.93;8.13;;;20.10;81.20;;;19.01;65.22;97932.44;5014550;28;20465;-69
2022/08/22 05:48:38;;;;;;;8.87;8.07;;;20.10;80.20;;;18.63;66.59;97938.09;5045364;28;20460;-70
2022/08/22 05:51:17;;;;;;;8.73;8.10;;;19.90;80.20;;;17.81;69.00;97936.63;5031251;28;20455;-69
2022/08/22 05:53:50;;;;;;;9.17;8.37;;;19.30;80.90;;;17.38;71.40;97944.03;5047177;28;21024;-69
2022/08/22 05:56:26;;;;;;;10.13;9.27;;;18.50;82.60;;;16.79;74.21;97934.78;5045048;28;20828;-70
2022/08/22 05:59:00;;;;;;;9.40;8.40;;;17.70;84.20;;;16.63;74.38;97931.06;5046898;28;20967;-70
2022/08/22 06:01:36;;;;;;;10.47;9.40;;;17.30;85.40;;;16.48;74.92;97931.72;5030361;28;20882;-70
2022/08/22 06:04:11;;;;;;;9.70;8.80;;;17.10;86.10;;;16.46;75.57;97928.44;5030634;28;20454;-72
2022/08/22 06:06:46;;;;;;;9.43;8.60;;;17.00;87.20;;;16.35;75.72;97932.94;5045222;28;20514;-70
2022/08/22 06:09:20;;;;;;;10.37;8.77;;;16.90;87.20;;;16.39;75.65;97915.81;5037857;28;20451;-70
2022/08/22 06:11:57;;;;;;;9.37;8.57;;;16.80;87.70;;;16.62;75.03;97934.88;5041236;28;20462;-70
2022/08/22 06:14:33;;;;;;;9.37;8.57;;;17.00;87.70;;;16.82;74.47;97937.78;5029166;28;20461;-70
2022/08/22 06:17:10;;;;;;;11.20;8.70;;;17.10;87.60;;;16.81;74.07;97930.69;5029913;28;20448;-69
2022/08/22 06:19:42;;;;;;;16.13;8.17;;;17.20;87.20;;;16.85;73.49;97933.72;5031297;28;20462;-69
2022/08/22 06:22:14;;;;;;;10.17;8.80;;;17.20;86.80;;;16.81;73.82;97932.59;5030151;28;20546;-70
2022/08/22 06:24:41;;;;;;;15.03;8.80;;;17.20;86.60;;;16.83;73.63;97930.44;5030865;28;20452;-71
2022/08/22 06:27:12;;;;;;;9.23;7.97;;;17.30;86.60;;;16.84;72.85;97937.53;5045103;28;20444;-69
2022/08/22 06:29:44;;;;;;;8.80;8.00;;;17.30;86.20;;;16.88;73.17;97941.38;5029925;28;20453;-69
2022/08/22 06:32:18;;;;;;;8.93;8.03;;;17.30;86.10;;;16.95;72.68;97922.91;5029978;28;20455;-70
2022/08/22 06:34:47;;;;;;;15.17;7.90;;;17.30;86.20;;;17.33;71.59;97943.97;5025403;28;21023;-68
2022/08/22 06:37:20;;;;;;;8.57;7.87;;;17.50;86.20;;;17.45;70.35;97946.53;5011208;28;20437;-73
2022/08/22 06:39:53;;;;;;;8.10;7.40;;;17.70;85.10;;;17.36;70.07;97948.91;5026714;28;20448;-72
2022/08/22 06:42:27;;;;;;;8.13;7.43;;;17.70;84.50;;;17.52;69.52;97947.97;5011572;28;20436;-69
2022/08/22 06:44:59;;;;;;;8.67;7.80;;;17.80;84.40;;;17.63;69.12;97948.00;5009698;28;20453;-73
2022/08/22 06:47:32;;;;;;;7.10;6.27;;;17.90;84.20;;;17.80;68.49;97943.19;5027688;28;20454;-71
2022/08/22 06:50:05;;;;;;;8.50;7.80;;;18.10;84.10;;;18.02;68.03;97938.66;5036620;28;20502;-71
2022/08/22 06:52:51;;;;;;;9.20;7.40;;;18.20;83.80;;;18.13;67.37;97934.91;5046467;28;20460;-69
2022/08/22 06:55:19;;;;;;;14.30;6.93;;;18.40;83.80;;;18.12;67.70;97927.81;5027605;28;20452;-76
2022/08/22 06:57:54;;;;;;;9.73;7.07;;;18.40;83.60;;;18.45;67.19;97941.34;5031226;28;20547;-74
2022/08/22 07:00:22;;;;;;;7.90;6.93;;;18.60;83.50;;;18.61;66.45;97932.06;5034530;28;20467;-74
2022/08/22 07:02:58;;;;;;;8.47;7.50;;;18.80;83.20;;;18.91;65.48;97933.22;5046009;28;20449;-69
2022/08/22 07:05:29;;;;;;;7.50;6.80;;;19.00;82.80;;;18.81;64.96;97920.34;5036880;28;20533;-73
2022/08/22 07:07:57;;;;;;;8.83;6.20;;;19.10;82.20;;;19.14;63.98;97936.53;5058546;28;20470;-73
2022/08/22 07:10:25;;;;;;;15.60;7.47;;;19.20;82.00;;;19.10;63.06;97935.44;5029329;28;20921;-71
2022/08/22 07:12:56;;;;;;;7.53;6.80;;;19.30;81.00;;;19.12;63.23;97933.25;5030753;28;20482;-74
2022/08/22 07:15:34;;;;;;;7.53;6.77;;;19.30;80.80;;;18.92;63.97;97934.84;5028904;28;20440;-69
2022/08/22 07:18:08;;;;;;;9.50;5.50;;;19.20;80.90;;;19.22;61.51;97933.25;5031127;28;20501;-72
2022/08/22 07:20:40;;;;;;;6.37;5.77;;;19.40;79.80;;;19.34;60.82;97940.38;5017774;28;20476;-70
2022/08/22 07:23:13;;;;;;;6.40;5.80;;;19.50;79.20;;;19.16;61.36;97898.75;5010614;28;20480;-70
2022/08/22 07:26:06;;;;;;;6.47;5.83;;;19.60;79.60;;;19.70;59.09;97932.09;5016125;28;20458;-70
2022/08/22 07:28:42;;;;;;;6.43;5.83;;;19.70;78.30;;;19.85;60.01;97928.47;5030018;28;20518;-72
2022/08/22 07:31:19;;;;;;;9.30;6.40;;;19.90;78.70;;;19.69;59.10;97930.44;5027754;28;20542;-71
2022/08/22 07:33:51;;;;;;;6.33;5.23;;;20.00;77.80;;;19.85;58.21;97931.22;5030037;28;20473;-73
2022/08/22 07:36:29;;;;;;;5.67;5.17;;;20.00;77.30;;;19.99;57.15;97936.97;5028613;28;20450;-69
2022/08/22 07:39:19;;;;;;;6.10;5.37;;;20.10;76.80;;;20.12;55.97;97932.81;5045214;28;20477;-74
2022/08/22 07:42:12;;;;;;;5.53;4.80;;;20.20;75.50;;;20.24;54.79;97927.00;5029014;28;20978;-71
2022/08/22 07:45:03;;;;;;;5.40;4.80;;;20.30;74.40;;;20.36;54.31;97927.50;5029132;28;20459;-74
2022/08/22 07:47:49;;;;;;;18.50;5.40;;;20.40;73.80;;;20.46;54.33;97931.28;5039763;28;20450;-70
2022/08/22 07:50:23;;;;;;;5.60;4.77;;;20.50;73.40;;;20.44;53.69;97936.25;5033272;28;20465;-71
2022/08/22 07:52:53;;;;;;;4.43;4.03;;;20.60;72.60;;;20.57;53.04;97932.88;5028154;28;20537;-70
2022/08/22 07:55:23;;;;;;;6.03;3.97;;;20.70;72.30;;;20.73;52.91;97935.53;5028022;28;20811;-77
2022/08/22 07:57:56;;;;;;;5.17;4.50;;;20.80;71.90;;;20.80;53.48;97922.31;5028189;28;20523;-70
2022/08/22 08:00:25;;;;;;;8.40;5.37;;;20.90;72.50;;;20.93;53.95;97938.16;5028466;28;20545;-69
2022/08/22 08:02:58;;;;;;;5.83;4.70;;;21.00;72.80;;;21.17;53.10;97933.88;5040160;28;20457;-73
2022/08/22 08:05:32;;;;;;;7.80;4.87;;;21.20;72.60;;;21.29;52.21;97933.50;5031177;28;20474;-71
2022/08/22 08:08:04;;;;;;;4.93;4.23;;;21.30;71.60;;;21.20;50.92;97928.63;5029683;28;20954;-72
2022/08/22 08:10:36;;;;;;;6.20;4.13;;;21.40;70.10;;;21.29;51.41;97937.06;5043061;28;20515;-70
2022/08/22 08:13:08;;;;;;;5.40;3.77;;;21.40;70.10;;;21.43;49.94;97931.72;5044856;28;20531;-73
2022/08/22 08:15:38;;;;;;;4.77;3.83;;;21.50;68.80;;;21.29;49.36;97930.75;5027438;28;20456;-71
2022/08/22 08:18:11;;;;;;;7.93;4.20;;;21.60;67.60;;;21.30;49.63;97935.13;5026972;28;20477;-71
2022/08/22 08:20:40;;;;;;;3.83;3.33;;;21.50;67.70;;;21.35;48.77;97919.41;5019180;28;20464;-69
2022/08/22 08:23:10;;;;;;;8.40;3.60;;;21.50;67.00;;;21.51;48.56;97925.59;5025005;28;20445;-74
2022/08/22 08:25:54;;;;;;;4.77;2.80;;;21.60;67.00;;;21.29;48.05;97931.56;5032039;28;20455;-70
2022/08/22 08:28:35;;;;;;;5.50;3.53;;;21.60;65.50;;;21.33;48.42;97934.56;5028813;28;20445;-77
2022/08/22 08:31:09;;;;;;;6.13;3.50;;;21.60;65.70;;;21.47;47.62;97931.97;5028173;28;20480;-72
2022/08/22 08:33:41;;;;;;;7.40;3.30;;;21.70;65.40;;;21.60;46.73;97931.28;5044726;28;20465;-70
2022/08/22 08:36:31;;;;;;;3.70;2.80;;;21.70;64.70;;;21.84;46.74;97929.69;5027212;28;20530;-72
2022/08/22 08:39:12;;;;;;;5.80;3.37;;;21.90;64.70;;;21.90;47.03;97934.84;5028962;28;20506;-70
2022/08/22 08:42:12;;;;;;;4.60;3.17;;;22.10;64.60;;;21.81;46.66;97925.59;5027670;28;20633;-70
2022/08/22 08:45:17;;;;;;;5.73;3.23;;;22.10;64.10;;;21.87;46.67;97929.94;5043627;28;21178;-70
2022/08/22 08:48:24;;;;;;;5.83;3.60;;;22.10;64.00;;;22.06;46.87;97930.00;5047060;28;20534;-71
2022/08/22 08:51:12;;;;;;;7.40;3.90;;;22.20;64.20;;;22.20;45.99;97927.34;5008041;28;20463;-70
2022/08/22 08:54:08;;;;;;;3.43;3.13;;;22.30;63.50;;;22.55;47.23;97937.38;5035691;28;20461;-74
2022/08/22 08:56:48;;;;;;;5.80;3.60;;;22.50;64.80;;;22.40;45.55;97932.88;5037681;28;20568;-71
2022/08/22 08:59:39;;;;;;;4.20;3.33;;;22.60;62.80;;;22.47;45.18;97925.06;5030747;28;20473;-70
2022/08/22 09:03:03;;;;;;;5.87;3.27;;;22.70;62.80;;;22.53;44.21;97929.44;5027605;28;20515;-71
2022/08/22 09:06:14;;;;;;;7.17;3.70;;;22.70;62.10;;;22.77;44.75;97928.53;5038432;28;20964;-69
2022/08/22 09:09:06;;;;;;;3.23;2.93;;;22.90;62.20;;;22.73;42.89;97924.75;4967323;28;20483;-71
2022/08/22 09:12:22;;;;;;;2.73;2.53;;;23.00;59.70;;;22.44;43.39;97920.16;5027577;28;20454;-71
2022/08/22 09:15:09;;;;;;;4.50;2.77;;;22.80;59.60;;;22.59;42.39;97920.00;5007575;28;20457;-78
2022/08/22 09:18:12;;;;;;;4.80;3.13;;;22.80;59.30;;;22.84;41.46;97923.50;5008598;28;20958;-70
2022/08/22 09:21:02;;;;;;;3.63;2.47;;;22.90;58.40;;;22.80;41.82;97927.94;5011641;28;20446;-72
2022/08/22 09:24:09;;;;;;;4.70;2.30;;;23.10;58.10;;;23.07;40.91;97923.69;5011331;28;20484;-73
2022/08/22 09:26:48;;;;;;;9.30;2.57;;;23.20;57.50;;;23.02;40.60;97930.06;5043592;28;20948;-70
2022/08/22 09:29:41;;;;;;;5.53;2.90;;;23.20;56.90;;;22.92;41.14;97917.28;5032668;28;20472;-69
2022/08/22 09:32:18;;;;;;;6.00;3.00;;;23.30;57.10;;;23.18;41.43;97922.41;5026031;28;20469;-69
2022/08/22 09:35:03;;;;;;;4.13;2.80;;;23.30;57.50;;;23.37;41.11;97909.72;5010541;28;20469;-69
2022/08/22 09:37:47;;;;;;;3.87;2.80;;;23.40;57.50;;;23.84;40.39;97916.03;5028052;28;20810;-69
2022/08/22 09:40:24;;;;;;;4.60;2.90;;;23.70;57.70;;;23.31;39.54;97915.31;5027922;28;20485;-74
2022/08/22 09:43:01;;;;;;;2.43;2.20;;;23.70;55.90;;;23.20;40.33;97917.41;5032266;28;20449;-72
2022/08/22 09:45:47;;;;;;;4.77;2.90;;;23.50;55.90;;;23.38;40.08;97914.13;5030079;28;20449;-69
2022/08/22 09:48:34;;;;;;;3.23;2.57;;;23.50;56.00;;;23.42;40.33;97915.13;5062493;28;20464;-72
2022/08/22 09:51:15;;;;;;;5.20;2.90;;;23.50;56.10;;;23.39;41.34;97921.25;5029347;28;20824;-70
2022/08/22 09:53:58;;;;;;;2.80;2.60;;;23.60;57.20;;;22.90;41.94;97916.78;5039512;28;20479;-72
2022/08/22 09:56:38;;;;;;;4.53;2.77;;;23.40;56.80;;;23.13;43.02;97916.97;5040015;28;20465;-70
2022/08/22 09:59:10;;;;;;;5.63;3.40;;;23.40;57.80;;;23.37;42.65;97921.56;5031226;28;20953;-71
2022/08/22 10:01:49;;;;;;;3.90;3.40;;;23.50;58.00;;;23.52;41.42;97919.66;5046335;28;20541;-71
2022/08/22 10:04:46;;;;;;;4.07;3.03;;;23.60;57.30;;;23.69;41.72;97925.38;5046476;28;20474;-72
2022/08/22 10:07:58;;;;;;;4.33;3.30;;;23.80;57.50;;;23.63;42.02;97916.41;5044453;28;20460;-69
2022/08/22 10:11:03;;;;;;;9.83;3.57;;;23.90;57.30;;;24.22;41.03;97916.94;5023421;28;20484;-75
2022/08/22 10:13:45;;;;;;;4.37;3.30;;;24.10;57.30;;;24.44;40.54;97906.00;5024226;28;20454;-70
2022/08/22 10:16:26;;;;;;;3.73;3.30;;;24.50;57.30;;;24.36;40.27;97922.47;5030316;28;20548;-74
2022/08/22 10:19:09;;;;;;;3.33;2.80;;;24.60;57.00;;;24.58;40.13;97917.00;5032312;28;20492;-73
2022/08/22 10:22:24;;;;;;;5.53;3.03;;;24.70;57.40;;;24.62;39.32;97917.19;5029653;28;20452;-72
2022/08/22 10:25:06;;;;;;;5.40;2.70;;;24.80;56.00;;;24.35;37.87;97916.13;5014860;28;20454;-78
2022/08/22 10:27:53;;;;;;;4.07;2.10;;;24.60;54.00;;;24.01;37.16;97914.59;5026358;28;20523;-70
2022/08/22 10:30:27;;;;;;;3.00;2.70;;;24.40;52.80;;;24.14;37.36;97915.72;5009412;28;20477;-71
2022/08/22 10:33:04;;;;;;;8.23;2.97;;;24.40;53.00;;;24.10;38.27;97917.47;5023324;28;20519;-72
2022/08/22 10:35:37;;;;;;;6.80;2.43;;;24.40;53.90;;;24.04;37.61;97925.03;5028808;28;20454;-71
2022/08/22 10:38:13;;;;;;;2.43;2.23;;;24.40;53.20;;;24.12;38.58;97921.56;5046363;28;20462;-72
2022/08/22 10:40:50;;;;;;;4.90;2.90;;;24.30;53.60;;;24.12;37.71;97932.63;5029592;28;20958;-73
2022/08/22 10:43:22;;;;;;;2.33;2.13;;;24.40;53.50;;;24.14;37.07;97924.00;5029543;28;20846;-70
2022/08/22 10:46:01;;;;;;;2.70;2.43;;;24.30;53.00;;;24.45;37.64;97923.38;5028524;28;20453;-70
2022/08/22 10:48:42;;;;;;;3.20;1.97;;;24.50;53.20;;;24.46;38.00;97931.34;5029122;28;20443;-70
2022/08/22 10:51:36;;;;;;;3.50;2.37;;;24.60;53.20;;;24.69;36.84;97922.28;5031009;28;20473;-78
2022/08/22 10:54:27;;;;;;;2.93;2.30;;;24.90;52.60;;;24.42;37.26;97918.47;5025455;28;20466;-75
2022/08/22 10:57:08;;;;;;;3.30;2.80;;;25.00;52.90;;;24.42;38.63;97922.06;5044599;28;20499;-74
2022/08/22 10:59:43;;;;;;;3.60;2.53;;;24.70;53.60;;;24.43;37.65;97920.09;5030264;28;20470;-70
2022/08/22 11:02:39;;;;;;;3.40;2.43;;;24.60;53.20;;;24.31;37.86;97917.88;5028552;28;20882;-72
2022/08/22 11:05:36;;;;;;;2.60;2.30;;;24.40;53.30;;;24.87;37.64;97913.06;5028959;28;20448;-71
2022/08/22 11:08:32;;;;;;;2.43;2.20;;;24.80;53.50;;;24.97;36.37;97916.72;5014729;28;20477;-78
2022/08/22 11:11:23;;;;;;;2.50;2.30;;;25.00;52.50;;;25.11;35.96;97914.72;5029537;28;20944;-75
2022/08/22 11:14:31;;;;;;;6.93;2.87;;;25.20;52.20;;;25.34;36.37;97911.91;5030053;28;20457;-76
2022/08/22 11:17:14;;;;;;;4.20;2.73;;;25.40;52.50;;;25.32;36.13;97909.47;5044097;28;20566;-71
2022/08/22 11:20:02;;;;;;;4.60;1.93;;;25.50;52.60;;;24.88;37.47;97913.88;5030989;28;20841;-70